Joshua Tree National Park, CA

2:34 PM PDT on September 16, 2014 (GMT -0700)
MesoWest Twentynine Palms JTNP CA US SGXWFO | Change Station
CLOSE
Current Station
Personal Weather Station
Location: Twentynine Palms, CA
Elevation: 1975 ft
Nearby Weather Stations

Elev 1975 ft 34.13 °N, 116.04 °W | Updated 39 minutes ago

Clear
Clear
99 °F
Feels Like 102 °F
N
8
Wind Variable Wind from ESE
Gusts 0.0 mph

Today
High -- | Low -- °F
--% Chance of Precip.
Yesterday
High -- | Low -- °F
Precip. -- in
6:28 AM 6:49 PM
Last Quarter, 42% visible
Pressure 29.81 in
Visibility 10.0 miles
Clouds Clear
Heat Index 102 °F
Dew Point 64 °F
Humidity 32%
Rainfall -999.00 in
Snow Depth 0 in , 0 in , 1 in
UV 9 out of 12
Pollen 5.60 out of 12
Ozone Good
Flu Activity Not available.
METAR KNXP 162056Z AUTO 09011KT 10SM CLR 36/17 A2993 RMK AO2 SLP094 T03560167 58021 $

More Conditions Fewer Conditions

Pressure 29.81 in
Visibility 10.0 miles
Clouds Clear
Heat Index 102 °F
Dew Point 64 °F
Humidity 32%
Rainfall -999.00 in
Snow Depth 0 in , 0 in , 1 in
UV 9 out of 12
Pollen 5.60 out of 12
Ozone Good
Flu Activity Not available.
METAR KNXP 162056Z AUTO 09011KT 10SM CLR 36/17 A2993 RMK AO2 SLP094 T03560167 58021 $

More Conditions Fewer Conditions

10-Day Weather Forecast

Almanac

Astronomy

Sep. 16, 2014 Rise Set
Actual Time 6:28 AM PDT 6:49 PM PDT
Civil Twilight 6:03 AM PDT 7:14 PM PDT
Nautical Twilight 5:33 AM PDT 7:43 PM PDT
Astronomical Twilight 5:03 AM PDT 8:13 PM PDT
Moon No Moon Rise 2:05 PM PDT
Length of Visible Light 13h 11m
Length of Day
12h 21m
Tomorrow will be 2m 7s shorter.
Last Quarter, 42% of the Moon is Illuminated
Today
Last Quarter
Sep 24
New
Oct 1
First Quarter
Oct 8
Full
Oct 15
Last Quarter

Today's Extremes

State Highs State Lows

Community

WunderPhotos

Upload Photos

1,753,895 photos uploaded!

Nearby

Air Quality

  Air Quality AQ Index Pollutant
Yesterday Good
OZONE
Yesterday Good
PM10
Current Good
OZONE
Wednesday Moderate
OZONE
Wednesday Good
PM10
Wednesday Good
CO
Wednesday Good
NO2

Snow Depth

Station Depth Elevation
Rubicon #2 0 in 7500 ft
Summit Meadow 0 in 9122 ft
CSS Lab 1 in 6900 ft
Adin Mountain 0 in 6200 ft
Leavitt Meadows 1 in 7200 ft

Earthquake Activity

City Distance Mag. Time & Date
La Quinta, California 50 miles 2.7 8:59 PM PDT
2014-09-15
Inyokern, California 164 miles 3.2 5:56 PM PDT
2014-09-14
San Jacinto, California 58 miles 3.0 3:16 PM PDT
2014-09-14
Minimum magnitude displayed is 2.5.

Coastal Water Temperatures

Place Temperature
No Stations Reporting

Nearby Weather Stations